Hurley, Missouri
Current Conditions -  °F | °C
As of 3:35 AM on Saturday 20 Dec 2014 (Local Time) from KFWB Reporting Station
Moderate Fog Moderate Fog  
Wind Chill: 36°   Ceiling: 200
Heat Index: 36°   Visibility: 0mi
Dew Point: 36°   Wind: 3mph
Humidity: 100%   Direction: 120°ESE
Pressure: 30.19"   Gusts: NA
Location:  36.93°N, 93.5°W
Report Text: KFWB 200935Z AUTO 12003KT M1/4SM FG OVC002 02/02 A3019 RMK AO2
Loading
Personal Weather Stations






























Interactive Weather Map New forecast layout! Learn more

10-Day Weather Forecast

Advertisements
Track Severe Weather on mobile